Farden, Minnesota
Current Conditions -  °F | °C
As of 6:55 PM on Monday 24 Nov 2014 (Local Time) from KY49 Reporting Station
Light Snow Light Snow  
Wind Chill:   Ceiling: 1400
Heat Index: 13°   Visibility: 7mi
Dew Point:   Wind: 8mph
Humidity: 82%   Direction: 310°NW
Pressure: 29.82"   Gusts: NA
Location:  47.3012°N, 94.5426°W
Report Text: KY49 250055Z AUTO 31007KT 7SM -SN OVC014 M11/M13 A2982 RMK AO2 T11061131
Loading
Personal Weather Stations






























Interactive Weather Map New forecast layout! Learn more

10-Day Weather Forecast

Advertisements
Track Severe Weather on mobile